GEC8346 EDDM-LTFM
Flight info
| Callsign | GEC8346 |
|---|---|
| Flight time | 2h 6m |
| Altitude | 35000 |
| Route | KIRDI3W KIRDI DCT BUBSE DCT GOTAR DCT NALOX DCT BABIT DCT KOTUS DCT IRGOR DCT ETIDA T390 RILEX |
| Aircraft | B77L/H-SDE1E2E3FGHIJ2J3J4J5M1RWXY/LB1D1 |
Departure
| Time | 2026-05-05 05:29 |
|---|---|
| Airport | Munich Airport (EDDM) |
Arrival
| Time | 2026-05-05 07:35 |
|---|---|
| Airport | İstanbul Airport (LTFM) |
| Time | Latitude | Longitude | Altitude | Speed | Heading |
|---|---|---|---|---|---|
| 2026-05-05 04:58 | 48.34561 | 11.75415 | 1477 ft | 0 kts | 173° |
| 2026-05-05 05:13 | 48.34584 | 11.75411 | 1474 ft | 4 kts | 173° |
| 2026-05-05 05:13 | 48.34610 | 11.75407 | 1474 ft | 2 kts | 173° |
| 2026-05-05 05:14 | 48.34632 | 11.75400 | 1474 ft | 4 kts | 144° |
| 2026-05-05 05:14 | 48.34645 | 11.75371 | 1474 ft | 4 kts | 95° |
| 2026-05-05 05:14 | 48.34644 | 11.75334 | 1474 ft | 4 kts | 83° |
| 2026-05-05 05:14 | 48.34642 | 11.75308 | 1474 ft | 0 kts | 83° |
| 2026-05-05 05:19 | 48.34644 | 11.75337 | 1474 ft | 6 kts | 83° |
| 2026-05-05 05:20 | 48.34652 | 11.75437 | 1474 ft | 11 kts | 83° |
| 2026-05-05 05:20 | 48.34661 | 11.75553 | 1490 ft | 11 kts | 83° |
| 2026-05-05 05:20 | 48.34670 | 11.75668 | 1484 ft | 11 kts | 83° |
| 2026-05-05 05:20 | 48.34629 | 11.75746 | 1483 ft | 11 kts | 173° |
| 2026-05-05 05:21 | 48.34552 | 11.75761 | 1488 ft | 11 kts | 173° |
| 2026-05-05 05:21 | 48.34504 | 11.75833 | 1474 ft | 11 kts | 88° |
| 2026-05-05 05:21 | 48.34513 | 11.75949 | 1481 ft | 11 kts | 83° |
| 2026-05-05 05:21 | 48.34523 | 11.76066 | 1478 ft | 11 kts | 83° |
| 2026-05-05 05:22 | 48.34532 | 11.76182 | 1490 ft | 11 kts | 83° |
| 2026-05-05 05:22 | 48.34541 | 11.76298 | 1487 ft | 11 kts | 83° |
| 2026-05-05 05:22 | 48.34550 | 11.76417 | 1479 ft | 13 kts | 84° |
| 2026-05-05 05:22 | 48.34563 | 11.76602 | 1480 ft | 20 kts | 83° |
| 2026-05-05 05:23 | 48.34579 | 11.76805 | 1482 ft | 20 kts | 83° |
| 2026-05-05 05:23 | 48.34595 | 11.77007 | 1478 ft | 20 kts | 83° |
| 2026-05-05 05:23 | 48.34611 | 11.77210 | 1476 ft | 20 kts | 83° |
| 2026-05-05 05:23 | 48.34627 | 11.77413 | 1480 ft | 20 kts | 83° |
| 2026-05-05 05:24 | 48.34642 | 11.77617 | 1483 ft | 20 kts | 84° |
| 2026-05-05 05:24 | 48.34657 | 11.77820 | 1487 ft | 20 kts | 83° |
| 2026-05-05 05:24 | 48.34673 | 11.78023 | 1490 ft | 20 kts | 83° |
| 2026-05-05 05:24 | 48.34689 | 11.78226 | 1486 ft | 20 kts | 83° |
| 2026-05-05 05:25 | 48.34704 | 11.78429 | 1483 ft | 20 kts | 83° |
| 2026-05-05 05:25 | 48.34719 | 11.78631 | 1481 ft | 20 kts | 83° |
| 2026-05-05 05:25 | 48.34735 | 11.78834 | 1476 ft | 20 kts | 83° |
| 2026-05-05 05:25 | 48.34752 | 11.79036 | 1479 ft | 20 kts | 83° |
| 2026-05-05 05:26 | 48.34768 | 11.79239 | 1476 ft | 20 kts | 83° |
| 2026-05-05 05:26 | 48.34782 | 11.79443 | 1477 ft | 20 kts | 84° |
| 2026-05-05 05:26 | 48.34798 | 11.79645 | 1478 ft | 20 kts | 83° |
| 2026-05-05 05:26 | 48.34814 | 11.79846 | 1486 ft | 20 kts | 83° |
| 2026-05-05 05:27 | 48.34829 | 11.80048 | 1484 ft | 18 kts | 83° |
| 2026-05-05 05:27 | 48.34804 | 11.80175 | 1478 ft | 13 kts | 127° |
| 2026-05-05 05:27 | 48.34644 | 11.80258 | 1484 ft | 13 kts | 174° |
| 2026-05-05 05:28 | 48.34556 | 11.80274 | 1479 ft | 13 kts | 173° |
| 2026-05-05 05:28 | 48.34476 | 11.80274 | 1481 ft | 9 kts | 213° |
| 2026-05-05 05:28 | 48.34455 | 11.80132 | 1490 ft | 34 kts | 262° |
| 2026-05-05 05:28 | 48.34395 | 11.79349 | 1479 ft | 117 kts | 263° |
| 2026-05-05 05:29 | 48.34274 | 11.77756 | 1501 ft | 185 kts | 264° |
| 2026-05-05 05:29 | 48.34128 | 11.75769 | 2128 ft | 192 kts | 264° |
| 2026-05-05 05:29 | 48.33988 | 11.73770 | 3014 ft | 192 kts | 264° |
| 2026-05-05 05:29 | 48.33837 | 11.71696 | 3482 ft | 211 kts | 263° |
| 2026-05-05 05:30 | 48.33658 | 11.69366 | 3736 ft | 239 kts | 263° |
| 2026-05-05 05:30 | 48.33455 | 11.66797 | 4260 ft | 254 kts | 263° |
| 2026-05-05 05:30 | 48.33247 | 11.64110 | 4999 ft | 263 kts | 264° |
| 2026-05-05 05:30 | 48.32819 | 11.61438 | 5672 ft | 269 kts | 243° |
| 2026-05-05 05:31 | 48.31612 | 11.59295 | 6507 ft | 273 kts | 215° |
| 2026-05-05 05:31 | 48.29855 | 11.58216 | 7373 ft | 277 kts | 188° |
| 2026-05-05 05:31 | 48.27921 | 11.58174 | 8146 ft | 281 kts | 177° |
| 2026-05-05 05:31 | 48.25970 | 11.58511 | 8887 ft | 284 kts | 166° |
| 2026-05-05 05:32 | 48.24151 | 11.59765 | 9569 ft | 291 kts | 146° |
| 2026-05-05 05:32 | 48.22643 | 11.61807 | 10336 ft | 297 kts | 130° |
| 2026-05-05 05:32 | 48.21437 | 11.64434 | 10700 ft | 319 kts | 118° |
| 2026-05-05 05:32 | 48.20502 | 11.67594 | 10908 ft | 345 kts | 109° |
| 2026-05-05 05:33 | 48.19775 | 11.71161 | 11146 ft | 370 kts | 105° |
| 2026-05-05 05:33 | 48.19128 | 11.74968 | 11782 ft | 382 kts | 104° |
| 2026-05-05 05:33 | 48.18555 | 11.78885 | 12584 ft | 389 kts | 99° |
| 2026-05-05 05:33 | 48.18311 | 11.82914 | 13473 ft | 393 kts | 92° |
| 2026-05-05 05:34 | 48.18361 | 11.87053 | 14352 ft | 397 kts | 85° |
| 2026-05-05 05:34 | 48.18645 | 11.91183 | 15164 ft | 402 kts | 83° |
| 2026-05-05 05:34 | 48.18961 | 11.95374 | 15939 ft | 407 kts | 83° |
| 2026-05-05 05:34 | 48.19283 | 11.99617 | 16718 ft | 412 kts | 83° |
| 2026-05-05 05:35 | 48.19600 | 12.03897 | 17474 ft | 416 kts | 84° |
| 2026-05-05 05:35 | 48.19914 | 12.08232 | 18210 ft | 421 kts | 84° |
| 2026-05-05 05:35 | 48.20224 | 12.12616 | 18913 ft | 425 kts | 84° |
| 2026-05-05 05:35 | 48.20533 | 12.17040 | 19599 ft | 429 kts | 84° |
| 2026-05-05 05:36 | 48.20841 | 12.21514 | 20271 ft | 434 kts | 84° |
| 2026-05-05 05:36 | 48.21150 | 12.26034 | 20932 ft | 438 kts | 84° |
| 2026-05-05 05:36 | 48.21460 | 12.30594 | 21547 ft | 442 kts | 84° |
| 2026-05-05 05:36 | 48.21772 | 12.35211 | 22166 ft | 446 kts | 84° |
| 2026-05-05 05:37 | 48.22084 | 12.39853 | 22770 ft | 450 kts | 84° |
| 2026-05-05 05:37 | 48.22399 | 12.44555 | 23354 ft | 454 kts | 84° |
| 2026-05-05 05:37 | 48.22714 | 12.49290 | 23926 ft | 458 kts | 84° |
| 2026-05-05 05:37 | 48.22988 | 12.54070 | 24479 ft | 462 kts | 87° |
| 2026-05-05 05:38 | 48.22985 | 12.58840 | 25002 ft | 466 kts | 93° |
| 2026-05-05 05:38 | 48.22617 | 12.63749 | 25552 ft | 469 kts | 99° |
| 2026-05-05 05:38 | 48.22112 | 12.68537 | 26035 ft | 473 kts | 99° |
| 2026-05-05 05:38 | 48.21619 | 12.73442 | 26545 ft | 477 kts | 98° |
| 2026-05-05 05:39 | 48.21151 | 12.78374 | 27023 ft | 480 kts | 97° |
| 2026-05-05 05:39 | 48.20822 | 12.83378 | 27487 ft | 484 kts | 92° |
| 2026-05-05 05:39 | 48.20831 | 12.88416 | 27946 ft | 487 kts | 88° |
| 2026-05-05 05:39 | 48.20973 | 12.93516 | 28393 ft | 490 kts | 88° |
| 2026-05-05 05:40 | 48.21114 | 12.98638 | 28810 ft | 493 kts | 88° |
| 2026-05-05 05:40 | 48.21243 | 13.03787 | 29199 ft | 496 kts | 88° |
| 2026-05-05 05:40 | 48.21358 | 13.08981 | 29565 ft | 499 kts | 88° |
| 2026-05-05 05:40 | 48.21427 | 13.12424 | 29818 ft | 501 kts | 88° |
| 2026-05-05 05:41 | 48.21526 | 13.17658 | 30235 ft | 502 kts | 88° |
| 2026-05-05 05:41 | 48.21621 | 13.22868 | 30756 ft | 500 kts | 88° |
| 2026-05-05 05:41 | 48.21716 | 13.28070 | 31275 ft | 498 kts | 88° |
| 2026-05-05 05:41 | 48.21809 | 13.33250 | 31756 ft | 496 kts | 88° |
| 2026-05-05 05:42 | 48.21829 | 13.38422 | 32170 ft | 496 kts | 94° |
| 2026-05-05 05:42 | 48.21309 | 13.43517 | 32534 ft | 496 kts | 104° |
| 2026-05-05 05:42 | 48.20221 | 13.48412 | 32944 ft | 494 kts | 113° |
| 2026-05-05 05:42 | 48.18645 | 13.52973 | 33343 ft | 492 kts | 122° |
| 2026-05-05 05:43 | 48.16801 | 13.57294 | 33718 ft | 492 kts | 123° |
| 2026-05-05 05:43 | 48.14941 | 13.61586 | 34076 ft | 492 kts | 123° |
| 2026-05-05 05:43 | 48.14206 | 13.63280 | 34230 ft | 491 kts | 123° |
| 2026-05-05 05:44 | 48.13626 | 13.64621 | 34339 ft | 491 kts | 123° |
| 2026-05-05 05:44 | 48.11774 | 13.68917 | 34701 ft | 490 kts | 123° |
| 2026-05-05 05:44 | 48.09936 | 13.73210 | 35008 ft | 491 kts | 123° |
| 2026-05-05 05:44 | 48.08096 | 13.77535 | 34933 ft | 495 kts | 122° |
| 2026-05-05 05:45 | 48.04428 | 13.86193 | 34962 ft | 490 kts | 122° |
| 2026-05-05 05:45 | 48.00795 | 13.94763 | 34962 ft | 487 kts | 122° |
| 2026-05-05 05:46 | 47.97168 | 14.03286 | 34961 ft | 486 kts | 123° |
| 2026-05-05 05:46 | 47.93539 | 14.11780 | 34964 ft | 486 kts | 123° |
| 2026-05-05 05:47 | 47.89892 | 14.20286 | 34963 ft | 487 kts | 123° |
| 2026-05-05 05:47 | 47.86232 | 14.28800 | 34968 ft | 488 kts | 123° |
| 2026-05-05 05:48 | 47.82558 | 14.37316 | 34962 ft | 489 kts | 123° |
| 2026-05-05 05:48 | 47.78879 | 14.45820 | 34963 ft | 490 kts | 123° |
| 2026-05-05 05:49 | 47.75180 | 14.54343 | 34965 ft | 491 kts | 123° |
| 2026-05-05 05:49 | 47.71472 | 14.62859 | 34963 ft | 491 kts | 123° |
| 2026-05-05 05:50 | 47.67756 | 14.71369 | 34963 ft | 491 kts | 123° |
| 2026-05-05 05:50 | 47.64032 | 14.79870 | 34963 ft | 491 kts | 123° |
| 2026-05-05 05:51 | 47.60305 | 14.88349 | 34962 ft | 491 kts | 123° |
| 2026-05-05 05:51 | 47.56578 | 14.96805 | 34963 ft | 490 kts | 123° |
| 2026-05-05 05:52 | 47.52841 | 15.05255 | 34961 ft | 490 kts | 123° |
| 2026-05-05 05:52 | 47.49108 | 15.13671 | 34964 ft | 489 kts | 123° |
| 2026-05-05 05:53 | 47.45369 | 15.22076 | 34965 ft | 489 kts | 123° |
| 2026-05-05 05:53 | 47.41649 | 15.30412 | 34962 ft | 489 kts | 123° |
| 2026-05-05 05:54 | 47.37898 | 15.38790 | 34961 ft | 489 kts | 123° |
| 2026-05-05 05:54 | 47.34138 | 15.47164 | 34962 ft | 489 kts | 124° |
| 2026-05-05 05:55 | 47.30377 | 15.55517 | 34964 ft | 489 kts | 124° |
| 2026-05-05 05:55 | 47.26604 | 15.63869 | 34961 ft | 490 kts | 124° |
| 2026-05-05 05:56 | 47.22829 | 15.72201 | 34963 ft | 490 kts | 124° |
| 2026-05-05 05:56 | 47.19045 | 15.80528 | 34963 ft | 490 kts | 124° |
| 2026-05-05 05:57 | 47.15251 | 15.88851 | 34961 ft | 490 kts | 124° |
| 2026-05-05 05:57 | 47.11459 | 15.97145 | 34962 ft | 490 kts | 124° |
| 2026-05-05 05:58 | 47.07657 | 16.05439 | 34964 ft | 490 kts | 124° |
| 2026-05-05 05:58 | 47.03868 | 16.13681 | 34963 ft | 490 kts | 124° |
| 2026-05-05 05:59 | 47.00299 | 16.22161 | 34967 ft | 490 kts | 116° |
| 2026-05-05 05:59 | 46.97790 | 16.31425 | 34961 ft | 490 kts | 107° |
| 2026-05-05 06:00 | 46.95817 | 16.40976 | 34965 ft | 490 kts | 107° |
| 2026-05-05 06:00 | 46.93814 | 16.50509 | 34963 ft | 490 kts | 107° |
| 2026-05-05 06:01 | 46.91768 | 16.60027 | 34962 ft | 490 kts | 108° |
| 2026-05-05 06:01 | 46.89711 | 16.69533 | 34966 ft | 490 kts | 108° |
| 2026-05-05 06:02 | 46.87595 | 16.79018 | 34965 ft | 490 kts | 111° |
| 2026-05-05 06:02 | 46.84580 | 16.87924 | 34958 ft | 490 kts | 122° |
| 2026-05-05 06:03 | 46.80917 | 16.96305 | 34965 ft | 490 kts | 123° |
| 2026-05-05 06:03 | 46.80477 | 16.97307 | 34963 ft | 490 kts | 123° |
| 2026-05-05 06:04 | 46.77511 | 17.04082 | 34963 ft | 490 kts | 123° |
| 2026-05-05 06:04 | 46.73864 | 17.12472 | 34963 ft | 490 kts | 122° |
| 2026-05-05 06:05 | 46.70222 | 17.20875 | 34963 ft | 490 kts | 122° |
| 2026-05-05 06:05 | 46.66577 | 17.29266 | 34964 ft | 490 kts | 122° |
| 2026-05-05 06:06 | 46.62928 | 17.37638 | 34962 ft | 490 kts | 122° |
| 2026-05-05 06:06 | 46.59270 | 17.46001 | 34964 ft | 490 kts | 123° |
| 2026-05-05 06:07 | 46.55605 | 17.54355 | 34963 ft | 490 kts | 123° |
| 2026-05-05 06:07 | 46.51939 | 17.62685 | 34962 ft | 490 kts | 123° |
| 2026-05-05 06:08 | 46.48286 | 17.70961 | 34963 ft | 490 kts | 123° |
| 2026-05-05 06:08 | 46.44606 | 17.79275 | 34965 ft | 490 kts | 123° |
| 2026-05-05 06:09 | 46.40899 | 17.87623 | 34962 ft | 490 kts | 123° |
| 2026-05-05 06:09 | 46.37230 | 17.95863 | 34962 ft | 490 kts | 123° |
| 2026-05-05 06:10 | 46.33532 | 18.04142 | 34964 ft | 490 kts | 123° |
| 2026-05-05 06:10 | 46.29828 | 18.12411 | 34962 ft | 490 kts | 123° |
| 2026-05-05 06:11 | 46.26116 | 18.20672 | 34963 ft | 490 kts | 123° |
| 2026-05-05 06:11 | 46.22397 | 18.28925 | 34961 ft | 490 kts | 123° |
| 2026-05-05 06:12 | 46.18676 | 18.37159 | 34962 ft | 490 kts | 123° |
| 2026-05-05 06:12 | 46.14947 | 18.45387 | 34965 ft | 490 kts | 123° |
| 2026-05-05 06:13 | 46.11212 | 18.53602 | 34964 ft | 490 kts | 123° |
| 2026-05-05 06:13 | 46.07470 | 18.61810 | 34962 ft | 490 kts | 123° |
| 2026-05-05 06:14 | 46.03722 | 18.70007 | 34963 ft | 490 kts | 123° |
| 2026-05-05 06:14 | 45.99974 | 18.78181 | 34964 ft | 490 kts | 123° |
| 2026-05-05 06:15 | 45.96217 | 18.86355 | 34963 ft | 490 kts | 123° |
| 2026-05-05 06:15 | 45.92363 | 18.94425 | 34965 ft | 489 kts | 129° |
| 2026-05-05 06:16 | 45.87938 | 19.01837 | 34967 ft | 489 kts | 131° |
| 2026-05-05 06:16 | 45.83455 | 19.09186 | 34965 ft | 489 kts | 131° |
| 2026-05-05 06:17 | 45.78988 | 19.16560 | 34962 ft | 490 kts | 131° |
| 2026-05-05 06:17 | 45.74535 | 19.23937 | 34965 ft | 490 kts | 131° |
| 2026-05-05 06:18 | 45.70077 | 19.31312 | 34962 ft | 490 kts | 131° |
| 2026-05-05 06:18 | 45.65616 | 19.38670 | 34963 ft | 490 kts | 131° |
| 2026-05-05 06:19 | 45.61149 | 19.46013 | 34963 ft | 490 kts | 131° |
| 2026-05-05 06:19 | 45.56676 | 19.53349 | 34963 ft | 490 kts | 131° |
| 2026-05-05 06:20 | 45.52228 | 19.60624 | 34965 ft | 490 kts | 131° |
| 2026-05-05 06:20 | 45.47714 | 19.67986 | 34965 ft | 490 kts | 131° |
| 2026-05-05 06:21 | 45.43231 | 19.75281 | 34966 ft | 490 kts | 131° |
| 2026-05-05 06:21 | 45.38739 | 19.82571 | 34965 ft | 490 kts | 131° |
| 2026-05-05 06:22 | 45.34246 | 19.89847 | 34961 ft | 490 kts | 131° |
| 2026-05-05 06:22 | 45.29687 | 19.96933 | 34964 ft | 489 kts | 135° |
| 2026-05-05 06:23 | 45.24881 | 20.03771 | 34966 ft | 489 kts | 135° |
| 2026-05-05 06:23 | 45.24630 | 20.04125 | 34965 ft | 489 kts | 135° |
| 2026-05-05 06:24 | 45.20447 | 20.10022 | 34962 ft | 489 kts | 135° |
| 2026-05-05 06:24 | 45.15631 | 20.16840 | 34963 ft | 489 kts | 135° |
| 2026-05-05 06:25 | 45.11631 | 20.22515 | 34965 ft | 489 kts | 135° |
| 2026-05-05 06:25 | 45.06819 | 20.29329 | 34962 ft | 489 kts | 135° |
| 2026-05-05 06:26 | 45.01968 | 20.36181 | 34964 ft | 489 kts | 135° |
| 2026-05-05 06:26 | 44.97146 | 20.42971 | 34964 ft | 489 kts | 135° |
| 2026-05-05 06:27 | 44.89938 | 20.53090 | 34963 ft | 489 kts | 135° |
| 2026-05-05 06:28 | 44.85101 | 20.59859 | 34963 ft | 489 kts | 135° |
| 2026-05-05 06:28 | 44.80268 | 20.66607 | 34966 ft | 489 kts | 135° |
| 2026-05-05 06:29 | 44.75429 | 20.73349 | 34962 ft | 489 kts | 135° |
| 2026-05-05 06:29 | 44.70683 | 20.80208 | 34963 ft | 489 kts | 131° |
| 2026-05-05 06:30 | 44.66240 | 20.87444 | 34967 ft | 489 kts | 131° |
| 2026-05-05 06:30 | 44.61805 | 20.94704 | 34964 ft | 490 kts | 131° |
| 2026-05-05 06:31 | 44.57356 | 21.01930 | 34961 ft | 490 kts | 131° |
| 2026-05-05 06:31 | 44.52884 | 21.09147 | 34964 ft | 490 kts | 131° |
| 2026-05-05 06:32 | 44.48411 | 21.16342 | 34961 ft | 490 kts | 131° |
| 2026-05-05 06:32 | 44.43934 | 21.23526 | 34966 ft | 490 kts | 131° |
| 2026-05-05 06:33 | 44.39453 | 21.30700 | 34963 ft | 490 kts | 131° |
| 2026-05-05 06:33 | 44.34962 | 21.37872 | 34965 ft | 490 kts | 131° |
| 2026-05-05 06:34 | 44.30468 | 21.45031 | 34961 ft | 490 kts | 131° |
| 2026-05-05 06:34 | 44.25973 | 21.52172 | 34965 ft | 490 kts | 131° |
| 2026-05-05 06:35 | 44.21472 | 21.59306 | 34963 ft | 490 kts | 131° |
| 2026-05-05 06:35 | 44.16966 | 21.66430 | 34963 ft | 490 kts | 131° |
| 2026-05-05 06:36 | 44.12460 | 21.73535 | 34964 ft | 490 kts | 131° |
| 2026-05-05 06:36 | 44.07977 | 21.80587 | 34964 ft | 490 kts | 131° |
| 2026-05-05 06:37 | 44.03460 | 21.87677 | 34961 ft | 490 kts | 132° |
| 2026-05-05 06:37 | 43.98941 | 21.94748 | 34959 ft | 490 kts | 132° |
| 2026-05-05 06:38 | 43.94415 | 22.01816 | 34963 ft | 490 kts | 132° |
| 2026-05-05 06:38 | 43.89885 | 22.08872 | 34964 ft | 490 kts | 132° |
| 2026-05-05 06:39 | 43.85350 | 22.15918 | 34961 ft | 490 kts | 132° |
| 2026-05-05 06:39 | 43.80811 | 22.22954 | 34963 ft | 490 kts | 132° |
| 2026-05-05 06:40 | 43.76268 | 22.29980 | 34966 ft | 490 kts | 132° |
| 2026-05-05 06:40 | 43.71724 | 22.36990 | 34964 ft | 490 kts | 132° |
| 2026-05-05 06:41 | 43.67627 | 22.44488 | 34965 ft | 490 kts | 122° |
| 2026-05-05 06:41 | 43.64468 | 22.52822 | 34967 ft | 490 kts | 116° |
| 2026-05-05 06:42 | 43.61433 | 22.61245 | 34965 ft | 490 kts | 117° |
| 2026-05-05 06:42 | 43.58368 | 22.69643 | 34962 ft | 490 kts | 117° |
| 2026-05-05 06:43 | 43.55276 | 22.78026 | 34963 ft | 490 kts | 117° |
| 2026-05-05 06:43 | 43.53281 | 22.83409 | 34965 ft | 490 kts | 117° |
| 2026-05-05 06:44 | 43.52427 | 22.85711 | 34963 ft | 490 kts | 117° |
| 2026-05-05 06:44 | 43.49319 | 22.94069 | 34961 ft | 490 kts | 117° |
| 2026-05-05 06:45 | 43.46202 | 23.02430 | 34963 ft | 491 kts | 117° |
| 2026-05-05 06:45 | 43.43083 | 23.10778 | 34964 ft | 491 kts | 117° |
| 2026-05-05 06:46 | 43.39957 | 23.19117 | 34965 ft | 491 kts | 117° |
| 2026-05-05 06:46 | 43.36823 | 23.27451 | 34963 ft | 491 kts | 117° |
| 2026-05-05 06:47 | 43.33687 | 23.35763 | 34965 ft | 490 kts | 117° |
| 2026-05-05 06:47 | 43.30540 | 23.44086 | 34962 ft | 490 kts | 117° |
| 2026-05-05 06:48 | 43.27395 | 23.52376 | 34964 ft | 490 kts | 117° |
| 2026-05-05 06:48 | 43.24240 | 23.60670 | 34963 ft | 490 kts | 118° |
| 2026-05-05 06:49 | 43.21101 | 23.68896 | 34964 ft | 490 kts | 118° |
| 2026-05-05 06:49 | 43.17935 | 23.77169 | 34964 ft | 490 kts | 118° |
| 2026-05-05 06:50 | 43.14762 | 23.85436 | 34964 ft | 490 kts | 118° |
| 2026-05-05 06:50 | 43.11584 | 23.93691 | 34963 ft | 490 kts | 118° |
| 2026-05-05 06:51 | 43.08398 | 24.01945 | 34966 ft | 490 kts | 118° |
| 2026-05-05 06:51 | 43.05206 | 24.10188 | 34960 ft | 490 kts | 118° |
| 2026-05-05 06:52 | 43.02013 | 24.18413 | 34964 ft | 490 kts | 118° |
| 2026-05-05 06:52 | 42.98810 | 24.26639 | 34961 ft | 490 kts | 118° |
| 2026-05-05 06:53 | 42.95601 | 24.34858 | 34961 ft | 491 kts | 118° |
| 2026-05-05 06:53 | 42.92382 | 24.43076 | 34964 ft | 490 kts | 118° |
| 2026-05-05 06:54 | 42.89161 | 24.51280 | 34962 ft | 490 kts | 118° |
| 2026-05-05 06:54 | 42.85941 | 24.59461 | 34964 ft | 490 kts | 118° |
| 2026-05-05 06:55 | 42.82704 | 24.67653 | 34963 ft | 490 kts | 118° |
| 2026-05-05 06:55 | 42.79467 | 24.75828 | 34962 ft | 490 kts | 118° |
| 2026-05-05 06:56 | 42.76227 | 24.83991 | 34964 ft | 490 kts | 118° |
| 2026-05-05 06:56 | 42.72982 | 24.92146 | 34964 ft | 490 kts | 118° |
| 2026-05-05 06:57 | 42.69731 | 25.00295 | 34962 ft | 490 kts | 118° |
| 2026-05-05 06:57 | 42.66469 | 25.08445 | 34965 ft | 490 kts | 118° |
| 2026-05-05 06:58 | 42.63205 | 25.16579 | 34962 ft | 490 kts | 119° |
| 2026-05-05 06:58 | 42.59937 | 25.24700 | 34962 ft | 490 kts | 119° |
| 2026-05-05 06:59 | 42.56661 | 25.32818 | 34964 ft | 490 kts | 119° |
| 2026-05-05 06:59 | 42.53403 | 25.40868 | 34963 ft | 490 kts | 119° |
| 2026-05-05 07:00 | 42.50115 | 25.48971 | 34963 ft | 490 kts | 119° |
| 2026-05-05 07:00 | 42.46802 | 25.57113 | 34962 ft | 490 kts | 119° |
| 2026-05-05 07:01 | 42.43528 | 25.65136 | 34962 ft | 490 kts | 119° |
| 2026-05-05 07:01 | 42.40223 | 25.73212 | 34963 ft | 490 kts | 119° |
| 2026-05-05 07:02 | 42.36916 | 25.81273 | 34964 ft | 490 kts | 119° |
| 2026-05-05 07:02 | 42.33603 | 25.89324 | 34963 ft | 490 kts | 119° |
| 2026-05-05 07:03 | 42.30284 | 25.97371 | 34963 ft | 490 kts | 119° |
| 2026-05-05 07:03 | 42.28375 | 26.01990 | 34965 ft | 490 kts | 119° |
| 2026-05-05 07:04 | 42.27196 | 26.04842 | 34965 ft | 490 kts | 119° |
| 2026-05-05 07:04 | 42.23863 | 26.12876 | 34961 ft | 490 kts | 119° |
| 2026-05-05 07:05 | 42.20524 | 26.20894 | 34964 ft | 490 kts | 120° |
| 2026-05-05 07:05 | 42.17177 | 26.28914 | 34962 ft | 490 kts | 120° |
| 2026-05-05 07:06 | 42.13827 | 26.36922 | 34963 ft | 490 kts | 120° |
| 2026-05-05 07:06 | 42.10472 | 26.44922 | 34962 ft | 490 kts | 120° |
| 2026-05-05 07:07 | 42.07112 | 26.52910 | 34966 ft | 490 kts | 120° |
| 2026-05-05 07:07 | 42.03746 | 26.60893 | 34963 ft | 490 kts | 120° |
| 2026-05-05 07:08 | 42.00376 | 26.68867 | 34963 ft | 490 kts | 120° |
| 2026-05-05 07:08 | 41.96999 | 26.76835 | 34962 ft | 490 kts | 120° |
| 2026-05-05 07:09 | 41.93950 | 26.83318 | 34963 ft | 490 kts | 128° |
| 2026-05-05 07:09 | 41.89400 | 26.90000 | 34634 ft | 478 kts | 139° |
| 2026-05-05 07:09 | 41.86883 | 26.92879 | 33988 ft | 476 kts | 140° |
| 2026-05-05 07:10 | 41.84372 | 26.95716 | 33022 ft | 481 kts | 140° |
| 2026-05-05 07:10 | 41.81798 | 26.98626 | 31957 ft | 488 kts | 140° |
| 2026-05-05 07:10 | 41.79190 | 27.01592 | 30877 ft | 493 kts | 140° |
| 2026-05-05 07:10 | 41.76577 | 27.04577 | 29981 ft | 495 kts | 140° |
| 2026-05-05 07:11 | 41.73969 | 27.07567 | 29356 ft | 489 kts | 140° |
| 2026-05-05 07:11 | 41.71410 | 27.10503 | 28824 ft | 482 kts | 140° |
| 2026-05-05 07:11 | 41.68873 | 27.13413 | 28294 ft | 476 kts | 140° |
| 2026-05-05 07:11 | 41.66372 | 27.16277 | 27692 ft | 472 kts | 140° |
| 2026-05-05 07:12 | 41.63887 | 27.19120 | 27068 ft | 468 kts | 140° |
| 2026-05-05 07:12 | 41.61433 | 27.21923 | 26439 ft | 459 kts | 140° |
| 2026-05-05 07:12 | 41.59030 | 27.24665 | 25504 ft | 449 kts | 140° |
| 2026-05-05 07:12 | 41.56663 | 27.27363 | 24363 ft | 445 kts | 140° |
| 2026-05-05 07:13 | 41.54322 | 27.30028 | 23220 ft | 441 kts | 140° |
| 2026-05-05 07:13 | 41.52003 | 27.32666 | 22156 ft | 435 kts | 140° |
| 2026-05-05 07:13 | 41.49818 | 27.35150 | 21104 ft | 422 kts | 140° |
| 2026-05-05 07:13 | 41.47624 | 27.37641 | 20378 ft | 404 kts | 140° |
| 2026-05-05 07:14 | 41.45440 | 27.40119 | 20010 ft | 420 kts | 140° |
| 2026-05-05 07:14 | 41.43196 | 27.42662 | 19565 ft | 425 kts | 140° |
| 2026-05-05 07:14 | 41.40938 | 27.45182 | 19102 ft | 422 kts | 142° |
| 2026-05-05 07:14 | 41.38619 | 27.47546 | 18653 ft | 417 kts | 143° |
| 2026-05-05 07:15 | 41.36307 | 27.49842 | 18208 ft | 412 kts | 144° |
| 2026-05-05 07:15 | 41.34018 | 27.52102 | 17762 ft | 407 kts | 144° |
| 2026-05-05 07:15 | 41.31757 | 27.54334 | 17330 ft | 403 kts | 144° |
| 2026-05-05 07:15 | 41.29521 | 27.56546 | 16901 ft | 398 kts | 143° |
| 2026-05-05 07:16 | 41.27311 | 27.58736 | 16478 ft | 395 kts | 143° |
| 2026-05-05 07:16 | 41.25121 | 27.60909 | 16059 ft | 391 kts | 143° |
| 2026-05-05 07:16 | 41.22946 | 27.63068 | 15643 ft | 391 kts | 143° |
| 2026-05-05 07:16 | 41.20798 | 27.65198 | 15233 ft | 392 kts | 143° |
| 2026-05-05 07:17 | 41.18576 | 27.67401 | 14805 ft | 392 kts | 143° |
| 2026-05-05 07:17 | 41.16391 | 27.69566 | 14386 ft | 391 kts | 143° |
| 2026-05-05 07:17 | 41.14249 | 27.71687 | 13967 ft | 389 kts | 143° |
| 2026-05-05 07:17 | 41.12080 | 27.73831 | 13549 ft | 388 kts | 143° |
| 2026-05-05 07:18 | 41.09924 | 27.75961 | 13135 ft | 386 kts | 143° |
| 2026-05-05 07:18 | 41.07777 | 27.78081 | 12720 ft | 383 kts | 144° |
| 2026-05-05 07:18 | 41.05648 | 27.80181 | 12307 ft | 381 kts | 144° |
| 2026-05-05 07:18 | 41.03535 | 27.82265 | 11910 ft | 376 kts | 144° |
| 2026-05-05 07:19 | 41.01453 | 27.84316 | 11507 ft | 370 kts | 144° |
| 2026-05-05 07:19 | 40.99403 | 27.86335 | 11124 ft | 364 kts | 144° |
| 2026-05-05 07:19 | 40.97392 | 27.88312 | 10721 ft | 358 kts | 144° |
| 2026-05-05 07:19 | 40.95405 | 27.90262 | 10338 ft | 353 kts | 144° |
| 2026-05-05 07:20 | 40.93655 | 27.92418 | 9936 ft | 341 kts | 125° |
| 2026-05-05 07:20 | 40.92683 | 27.95206 | 9822 ft | 327 kts | 105° |
| 2026-05-05 07:20 | 40.92345 | 27.98093 | 9753 ft | 312 kts | 95° |
| 2026-05-05 07:20 | 40.92187 | 28.00911 | 9596 ft | 301 kts | 94° |
| 2026-05-05 07:21 | 40.92060 | 28.03615 | 9437 ft | 291 kts | 94° |
| 2026-05-05 07:21 | 40.91937 | 28.06266 | 9138 ft | 286 kts | 94° |
| 2026-05-05 07:21 | 40.91813 | 28.08848 | 8969 ft | 279 kts | 94° |
| 2026-05-05 07:21 | 40.91685 | 28.11398 | 8804 ft | 278 kts | 94° |
| 2026-05-05 07:22 | 40.91554 | 28.13946 | 8658 ft | 277 kts | 94° |
| 2026-05-05 07:22 | 40.91419 | 28.16490 | 8507 ft | 277 kts | 94° |
| 2026-05-05 07:22 | 40.91282 | 28.19031 | 8361 ft | 277 kts | 94° |
| 2026-05-05 07:22 | 40.91143 | 28.21572 | 8207 ft | 277 kts | 94° |
| 2026-05-05 07:23 | 40.91002 | 28.24112 | 8061 ft | 277 kts | 94° |
| 2026-05-05 07:23 | 40.90861 | 28.26647 | 7911 ft | 277 kts | 94° |
| 2026-05-05 07:23 | 40.90719 | 28.29188 | 7757 ft | 276 kts | 94° |
| 2026-05-05 07:23 | 40.90576 | 28.31714 | 7612 ft | 276 kts | 94° |
| 2026-05-05 07:24 | 40.90433 | 28.34245 | 7460 ft | 275 kts | 94° |
| 2026-05-05 07:24 | 40.90290 | 28.36763 | 7314 ft | 275 kts | 94° |
| 2026-05-05 07:24 | 40.90146 | 28.39278 | 7152 ft | 274 kts | 94° |
| 2026-05-05 07:24 | 40.90002 | 28.41782 | 7018 ft | 273 kts | 94° |
| 2026-05-05 07:25 | 40.89859 | 28.44281 | 6876 ft | 272 kts | 94° |
| 2026-05-05 07:25 | 40.89715 | 28.46761 | 6724 ft | 271 kts | 94° |
| 2026-05-05 07:25 | 40.89572 | 28.49244 | 6578 ft | 270 kts | 94° |
| 2026-05-05 07:25 | 40.89428 | 28.51716 | 6433 ft | 270 kts | 94° |
| 2026-05-05 07:26 | 40.89284 | 28.54183 | 6289 ft | 269 kts | 94° |
| 2026-05-05 07:26 | 40.89139 | 28.56642 | 6144 ft | 268 kts | 94° |
| 2026-05-05 07:26 | 40.89145 | 28.59068 | 5971 ft | 261 kts | 78° |
| 2026-05-05 07:26 | 40.89673 | 28.61376 | 5883 ft | 266 kts | 70° |
| 2026-05-05 07:27 | 40.90310 | 28.63662 | 5711 ft | 261 kts | 69° |
| 2026-05-05 07:27 | 40.90915 | 28.65876 | 5560 ft | 250 kts | 70° |
| 2026-05-05 07:27 | 40.91501 | 28.67981 | 5391 ft | 236 kts | 63° |
| 2026-05-05 07:27 | 40.92536 | 28.69567 | 5304 ft | 229 kts | 32° |
| 2026-05-05 07:28 | 40.93921 | 28.70612 | 5263 ft | 231 kts | 28° |
| 2026-05-05 07:28 | 40.95325 | 28.71647 | 5111 ft | 236 kts | 28° |
| 2026-05-05 07:28 | 40.96767 | 28.72711 | 4987 ft | 231 kts | 28° |
| 2026-05-05 07:28 | 40.98218 | 28.73381 | 4893 ft | 221 kts | 2° |
| 2026-05-05 07:29 | 40.99686 | 28.73372 | 4887 ft | 201 kts | 358° |
| 2026-05-05 07:29 | 41.01014 | 28.73352 | 4868 ft | 186 kts | 358° |
| 2026-05-05 07:29 | 41.02298 | 28.73328 | 4891 ft | 185 kts | 358° |
| 2026-05-05 07:29 | 41.03618 | 28.73298 | 4667 ft | 191 kts | 358° |
| 2026-05-05 07:30 | 41.04932 | 28.73270 | 4432 ft | 185 kts | 358° |
| 2026-05-05 07:30 | 41.07443 | 28.73210 | 3971 ft | 181 kts | 358° |
| 2026-05-05 07:30 | 41.08707 | 28.73181 | 3748 ft | 184 kts | 358° |
| 2026-05-05 07:31 | 41.09983 | 28.73154 | 3481 ft | 181 kts | 358° |
| 2026-05-05 07:31 | 41.11228 | 28.73123 | 3250 ft | 179 kts | 357° |
| 2026-05-05 07:31 | 41.12476 | 28.73092 | 3003 ft | 179 kts | 358° |
| 2026-05-05 07:31 | 41.13724 | 28.73067 | 2774 ft | 180 kts | 358° |
| 2026-05-05 07:32 | 41.14961 | 28.73037 | 2525 ft | 176 kts | 358° |
| 2026-05-05 07:32 | 41.16182 | 28.73006 | 2303 ft | 172 kts | 358° |
| 2026-05-05 07:32 | 41.17340 | 28.72981 | 2059 ft | 160 kts | 357° |
| 2026-05-05 07:32 | 41.18446 | 28.72957 | 1867 ft | 159 kts | 358° |
| 2026-05-05 07:33 | 41.19552 | 28.72932 | 1689 ft | 158 kts | 357° |
| 2026-05-05 07:33 | 41.20639 | 28.72905 | 1461 ft | 156 kts | 357° |
| 2026-05-05 07:33 | 41.21726 | 28.72879 | 1257 ft | 156 kts | 357° |
| 2026-05-05 07:33 | 41.22815 | 28.72855 | 1037 ft | 156 kts | 358° |
| 2026-05-05 07:34 | 41.23880 | 28.72838 | 814 ft | 150 kts | 358° |
| 2026-05-05 07:34 | 41.24894 | 28.72799 | 642 ft | 144 kts | 357° |
| 2026-05-05 07:34 | 41.25892 | 28.72784 | 453 ft | 143 kts | 358° |
| 2026-05-05 07:34 | 41.26878 | 28.72761 | 336 ft | 135 kts | 358° |
| 2026-05-05 07:35 | 41.27668 | 28.72742 | 336 ft | 88 kts | 359° |
| 2026-05-05 07:35 | 41.28132 | 28.72732 | 337 ft | 53 kts | 359° |
| 2026-05-05 07:35 | 41.28382 | 28.72633 | 333 ft | 27 kts | 330° |
| 2026-05-05 07:35 | 41.28493 | 28.72544 | 334 ft | 17 kts | 328° |
| 2026-05-05 07:36 | 41.28523 | 28.72397 | 335 ft | 17 kts | 269° |
| 2026-05-05 07:36 | 41.28520 | 28.72237 | 336 ft | 17 kts | 268° |
| 2026-05-05 07:36 | 41.28517 | 28.72077 | 338 ft | 17 kts | 269° |
| 2026-05-05 07:36 | 41.28515 | 28.71916 | 338 ft | 17 kts | 269° |
| 2026-05-05 07:37 | 41.28513 | 28.71755 | 334 ft | 17 kts | 269° |
| 2026-05-05 07:37 | 41.28511 | 28.71595 | 335 ft | 17 kts | 269° |
| 2026-05-05 07:37 | 41.28510 | 28.71434 | 338 ft | 17 kts | 269° |
| 2026-05-05 07:37 | 41.28508 | 28.71273 | 338 ft | 17 kts | 269° |
| 2026-05-05 07:38 | 41.28478 | 28.71174 | 336 ft | 11 kts | 202° |
| 2026-05-05 07:38 | 41.28401 | 28.71172 | 335 ft | 11 kts | 179° |
| 2026-05-05 07:38 | 41.28288 | 28.71175 | 334 ft | 22 kts | 179° |
| 2026-05-05 07:38 | 41.28135 | 28.71178 | 337 ft | 22 kts | 179° |
| 2026-05-05 07:39 | 41.27982 | 28.71182 | 335 ft | 22 kts | 179° |
| 2026-05-05 07:39 | 41.27848 | 28.71185 | 336 ft | 13 kts | 179° |
| 2026-05-05 07:39 | 41.27781 | 28.71194 | 335 ft | 9 kts | 154° |
| 2026-05-05 07:39 | 41.27763 | 28.71272 | 337 ft | 9 kts | 89° |
| 2026-05-05 07:40 | 41.27764 | 28.71323 | 335 ft | 5 kts | 89° |
| 2026-05-05 07:40 | 41.27764 | 28.71344 | 334 ft | 2 kts | 89° |
| 2026-05-05 07:40 | 41.27764 | 28.71346 | 334 ft | 0 kts | 89° |